createdAt,value
2023-05-12T00:00:55.160Z,50.1
2023-05-12T00:02:54.109Z,49.3
2023-05-12T00:04:53.697Z,49.6
2023-05-12T00:06:53.706Z,49.9
2023-05-12T00:08:53.702Z,51.1
2023-05-12T00:10:53.550Z,50.6
2023-05-12T00:12:53.684Z,50
2023-05-12T00:14:53.722Z,51.2
2023-05-12T00:16:53.709Z,50.7
2023-05-12T00:18:53.704Z,50.7
2023-05-12T00:20:53.542Z,51.2
2023-05-12T00:22:53.829Z,51.8
2023-05-12T00:24:53.673Z,51.3
2023-05-12T00:26:53.665Z,52.1
2023-05-12T00:28:53.578Z,51.3
2023-05-12T00:30:53.575Z,52.5
2023-05-12T00:32:53.618Z,51.9
2023-05-12T00:34:53.592Z,51.6
2023-05-12T00:36:53.683Z,53
2023-05-12T00:38:53.667Z,54.3
2023-05-12T00:40:53.568Z,53.9
2023-05-12T00:42:53.604Z,53.6
2023-05-12T00:44:53.512Z,52.7
2023-05-12T00:46:53.545Z,54
2023-05-12T00:48:53.710Z,54.2
2023-05-12T00:50:53.709Z,56.6
2023-05-12T00:52:54.823Z,54.4
2023-05-12T00:54:53.528Z,54
2023-05-12T00:56:53.595Z,54
2023-05-12T00:58:53.550Z,54.9
2023-05-12T01:00:54.952Z,55
2023-05-12T01:02:53.745Z,55.5
2023-05-12T01:04:53.505Z,55.9
2023-05-12T01:06:53.553Z,56
2023-05-12T01:08:53.509Z,55.8
2023-05-12T01:10:53.508Z,57.2
2023-05-12T01:12:53.494Z,56.7
2023-05-12T01:14:53.517Z,56
2023-05-12T01:16:53.605Z,56
2023-05-12T01:18:53.542Z,57.9
2023-05-12T01:20:53.650Z,56.6
2023-05-12T01:22:53.620Z,56.1
2023-05-12T01:24:53.717Z,56.8
2023-05-12T01:26:53.616Z,56.1
2023-05-12T01:28:54.886Z,57.5
2023-05-12T01:30:56.049Z,57.2
2023-05-12T01:32:54.092Z,56.3
2023-05-12T01:34:53.479Z,58.1
2023-05-12T01:36:53.502Z,56.7
2023-05-12T01:38:53.462Z,57.4
2023-05-12T01:40:53.445Z,57.3
2023-05-12T01:42:53.502Z,57.7
2023-05-12T01:44:53.484Z,57.2
2023-05-12T01:46:53.576Z,60
2023-05-12T01:48:53.480Z,58.6
2023-05-12T01:50:53.489Z,58.4
2023-05-12T01:52:53.503Z,58
2023-05-12T01:54:54.534Z,58.4
2023-05-12T01:56:53.490Z,58.9
2023-05-12T01:58:53.464Z,59.6
2023-05-12T02:00:53.568Z,58.6
2023-05-12T02:02:53.494Z,58.3
2023-05-12T02:04:53.423Z,58.9
2023-05-12T02:06:53.419Z,58.5
2023-05-12T02:08:53.497Z,58
2023-05-12T02:10:53.438Z,59.4
2023-05-12T02:12:53.444Z,57.9
2023-05-12T02:14:53.797Z,58.6
2023-05-12T02:16:53.424Z,59.3
2023-05-12T02:18:53.721Z,59.8
2023-05-12T02:20:53.418Z,59.4
2023-05-12T02:22:53.422Z,58.9
2023-05-12T02:24:53.450Z,59.8
2023-05-12T02:26:53.424Z,59
2023-05-12T02:28:53.517Z,58.7
2023-05-12T02:30:53.430Z,58.3
2023-05-12T02:32:53.507Z,58.2
2023-05-12T02:34:53.417Z,58.9
2023-05-12T02:36:53.638Z,60.7
2023-05-12T02:38:53.397Z,60.3
2023-05-12T02:40:53.458Z,59.5
2023-05-12T02:42:53.415Z,59.1
2023-05-12T02:44:53.454Z,59.8
2023-05-12T02:46:53.399Z,59.8
2023-05-12T02:48:53.526Z,60.2
2023-05-12T02:50:53.389Z,59.2
2023-05-12T02:52:53.470Z,59.1
2023-05-12T02:54:53.439Z,59.9
2023-05-12T02:56:53.473Z,59.2
2023-05-12T02:58:53.431Z,60
2023-05-12T03:01:00.051Z,59.3
2023-05-12T03:02:53.605Z,59.3
2023-05-12T03:04:53.565Z,60.4
2023-05-12T03:06:53.402Z,59.5
2023-05-12T03:08:53.414Z,59.8
2023-05-12T03:10:53.419Z,61.4
2023-05-12T03:12:53.355Z,59.8
2023-05-12T03:14:53.422Z,60.1
2023-05-12T03:16:53.418Z,60.4
2023-05-12T03:18:53.433Z,60
2023-05-12T03:20:53.402Z,59.5
2023-05-12T03:22:56.000Z,59.7
2023-05-12T03:24:53.464Z,59.9
2023-05-12T03:26:53.344Z,60.9
2023-05-12T03:28:53.428Z,60.8
2023-05-12T03:30:53.341Z,60.7
2023-05-12T03:32:53.430Z,60.2
2023-05-12T03:34:53.368Z,61.7
2023-05-12T03:36:53.411Z,60.7
2023-05-12T03:38:53.494Z,61.4
2023-05-12T03:40:53.487Z,61.2
2023-05-12T03:42:53.320Z,62.1
2023-05-12T03:44:53.347Z,61
2023-05-12T03:46:53.419Z,61.6
2023-05-12T03:48:53.468Z,62
2023-05-12T03:50:53.313Z,62.4
2023-05-12T03:52:53.400Z,62.5
2023-05-12T03:54:53.358Z,64.5
2023-05-12T03:56:53.331Z,63
2023-05-12T03:58:53.314Z,64.4
2023-05-12T04:00:53.308Z,63.4
2023-05-12T04:02:53.390Z,63.1
2023-05-12T04:04:53.323Z,63
2023-05-12T04:06:53.379Z,63.1
2023-05-12T04:08:53.350Z,62.8
2023-05-12T04:10:53.387Z,62.6
2023-05-12T04:12:53.326Z,62.2
2023-05-12T04:14:53.284Z,65.5
2023-05-12T04:16:53.311Z,63.7
2023-05-12T04:18:53.362Z,63
2023-05-12T04:20:53.298Z,64.5
2023-05-12T04:22:53.294Z,63.3
2023-05-12T04:24:53.282Z,63.5
2023-05-12T04:26:53.280Z,63.5
2023-05-12T04:28:53.362Z,62.6
2023-05-12T04:30:53.277Z,63.5
2023-05-12T04:32:53.399Z,65.2
2023-05-12T04:34:53.370Z,66.4
2023-05-12T04:36:55.995Z,64.6
2023-05-12T04:38:53.418Z,65.8
2023-05-12T04:40:53.343Z,64.6
2023-05-12T04:42:54.849Z,63.7
2023-05-12T04:44:54.482Z,64.9
2023-05-12T04:46:53.553Z,66.1
2023-05-12T04:48:53.452Z,64.9
2023-05-12T04:50:53.298Z,66.2
2023-05-12T04:52:53.284Z,65.2
2023-05-12T04:54:53.302Z,66.9
2023-05-12T04:56:53.306Z,66.3
2023-05-12T04:58:53.334Z,66.6
2023-05-12T05:00:54.513Z,68.2
2023-05-12T05:02:54.589Z,68.3
2023-05-12T05:04:53.371Z,66.9
2023-05-12T05:06:53.228Z,65.6
2023-05-12T05:08:53.253Z,67.6
2023-05-12T05:10:53.233Z,68.1
2023-05-12T05:12:53.207Z,69.2
2023-05-12T05:14:53.270Z,67.9
2023-05-12T05:16:53.406Z,68.3
2023-05-12T05:18:53.363Z,68
2023-05-12T05:22:53.249Z,68.8
2023-05-12T05:24:53.245Z,66.8
2023-05-12T05:26:53.215Z,67
2023-05-12T05:28:53.234Z,68.9
2023-05-12T05:30:53.264Z,68
2023-05-12T05:32:53.304Z,67.8
2023-05-12T05:34:53.213Z,67.9
2023-05-12T05:36:53.195Z,68.4
2023-05-12T05:38:53.359Z,66.9
2023-05-12T05:40:54.436Z,67.9
2023-05-12T05:42:53.280Z,69.3
2023-05-12T05:44:53.225Z,67.5
2023-05-12T05:46:53.288Z,69.1
2023-05-12T05:48:53.282Z,67.4
2023-05-12T05:50:53.198Z,69
2023-05-12T05:52:53.299Z,69.2
2023-05-12T05:54:53.193Z,68.7
2023-05-12T05:56:53.202Z,68.1
2023-05-12T05:58:53.246Z,69.8
2023-05-12T06:00:53.195Z,68.2
2023-05-12T06:02:53.286Z,68.5
2023-05-12T06:04:53.188Z,68.2
2023-05-12T06:06:53.209Z,69.5
2023-05-12T06:08:53.175Z,69.5
2023-05-12T06:10:53.240Z,70.4
2023-05-12T06:12:53.154Z,70.2
2023-05-12T06:14:53.326Z,68.7
2023-05-12T06:16:53.288Z,70.1
2023-05-12T06:18:53.284Z,69.8
2023-05-12T06:20:53.161Z,70
2023-05-12T06:22:53.284Z,68.7
2023-05-12T06:24:53.170Z,69.6
2023-05-12T06:26:53.190Z,69.1
2023-05-12T06:28:53.168Z,67.9
2023-05-12T06:30:53.195Z,69.3
2023-05-12T06:32:53.185Z,69.4
2023-05-12T06:34:53.208Z,69.1
2023-05-12T06:36:54.881Z,69
2023-05-12T06:38:53.160Z,69.8
2023-05-12T06:40:53.135Z,70.3
2023-05-12T06:42:53.170Z,69.2
2023-05-12T06:44:53.133Z,70.1
2023-05-12T06:46:53.169Z,69.7
2023-05-12T06:48:53.184Z,70
2023-05-12T06:50:53.199Z,69.2
2023-05-12T06:52:53.380Z,70.6
2023-05-12T06:54:53.237Z,69
2023-05-12T06:56:53.272Z,70.5
2023-05-12T06:58:53.182Z,69.1
2023-05-12T07:00:53.119Z,70.2
2023-05-12T07:02:53.245Z,70.2
2023-05-12T07:04:53.137Z,68.9
2023-05-12T07:06:53.158Z,70.1
2023-05-12T07:08:53.116Z,70
2023-05-12T07:10:53.248Z,69
2023-05-12T07:12:53.108Z,68.6
2023-05-12T07:14:53.134Z,71.5
2023-05-12T07:16:53.153Z,71.5
2023-05-12T07:18:53.181Z,71.7
2023-05-12T07:20:53.087Z,70.7
2023-05-12T07:22:53.338Z,72
2023-05-12T07:24:53.093Z,70.8
2023-05-12T07:26:54.512Z,70.5
2023-05-12T07:28:53.159Z,69.8
2023-05-12T07:30:53.160Z,70.8
2023-05-12T07:32:53.164Z,71.9
2023-05-12T07:34:53.094Z,71.2
2023-05-12T07:36:53.087Z,71.4
2023-05-12T07:38:53.098Z,70.6
2023-05-12T07:40:54.332Z,71.1
2023-05-12T07:42:53.058Z,70.2
2023-05-12T07:44:53.078Z,70.8
2023-05-12T07:46:53.084Z,71.9
2023-05-12T07:48:53.086Z,72.1
2023-05-12T07:50:53.046Z,71.1
2023-05-12T07:52:53.084Z,72.9
2023-05-12T07:54:54.499Z,73.2
2023-05-12T07:56:54.390Z,72.3
2023-05-12T07:58:53.110Z,73.5
2023-05-12T08:00:53.083Z,72.6
2023-05-12T08:02:53.143Z,72.2
2023-05-12T08:04:53.132Z,71.3
2023-05-12T08:06:53.029Z,71.7
2023-05-12T08:08:53.029Z,71.5
2023-05-12T08:10:53.061Z,71.2
2023-05-12T08:12:53.034Z,72.7
2023-05-12T08:14:53.051Z,72.1
2023-05-12T08:16:53.113Z,72.3
2023-05-12T08:18:53.004Z,72.2
2023-05-12T08:20:53.131Z,72
2023-05-12T08:22:53.840Z,72.2
2023-05-12T08:24:53.017Z,71.1
2023-05-12T08:26:53.053Z,72.3
2023-05-12T08:28:53.130Z,72.7
2023-05-12T08:30:53.030Z,73.2
2023-05-12T08:32:53.141Z,73.1
2023-05-12T08:34:53.105Z,72.7
2023-05-12T08:36:53.011Z,73.2
2023-05-12T08:38:53.025Z,72.8
2023-05-12T08:40:52.999Z,73.3
2023-05-12T08:42:52.967Z,73.6
2023-05-12T08:44:53.001Z,72.7
2023-05-12T08:46:53.245Z,73.8
2023-05-12T08:48:52.957Z,74.1
2023-05-12T08:50:53.096Z,73.2
2023-05-12T08:52:52.962Z,73.4
2023-05-12T08:54:56.252Z,72.6
2023-05-12T08:58:52.976Z,73.9
2023-05-12T09:00:53.041Z,74.4
2023-05-12T09:02:54.641Z,73.5
2023-05-12T09:04:53.276Z,73
2023-05-12T09:06:55.047Z,74.5
2023-05-12T09:08:52.975Z,74.2
2023-05-12T09:10:52.980Z,75.2
2023-05-12T09:12:52.967Z,75
2023-05-12T09:14:52.976Z,73.3
2023-05-12T09:16:53.073Z,73.6
2023-05-12T09:18:53.037Z,74.6
2023-05-12T09:20:52.993Z,74.3
2023-05-12T09:22:52.961Z,75.3
2023-05-12T09:24:52.960Z,73.9
2023-05-12T09:26:53.003Z,74.2
2023-05-12T09:28:53.057Z,73.4
2023-05-12T09:30:52.930Z,73.1
2023-05-12T09:32:53.236Z,73.6
2023-05-12T09:34:52.927Z,73.3
2023-05-12T09:36:52.994Z,74.4
2023-05-12T09:38:53.048Z,73.3
2023-05-12T09:40:52.934Z,73.8
2023-05-12T09:42:53.074Z,73
2023-05-12T09:44:53.013Z,73.8
2023-05-12T09:46:53.060Z,72.7
2023-05-12T09:48:52.971Z,75.6
2023-05-12T09:50:54.278Z,73.8
2023-05-12T09:52:52.954Z,73.8
2023-05-12T09:54:52.959Z,73.7
2023-05-12T09:56:52.929Z,75.2
2023-05-12T09:58:52.961Z,74.5
2023-05-12T10:02:54.468Z,74.1
2023-05-12T10:04:53.065Z,73.1
2023-05-12T10:06:52.952Z,73.2
2023-05-12T10:08:54.372Z,72.9
2023-05-12T10:10:53.014Z,73
2023-05-12T10:12:54.346Z,73.9
2023-05-12T10:14:53.004Z,73.3
2023-05-12T10:16:53.210Z,74.8
2023-05-12T10:18:53.185Z,74.5
2023-05-12T10:20:54.267Z,74.9
2023-05-12T10:22:54.283Z,74.2
2023-05-12T10:24:52.885Z,73.9
2023-05-12T10:26:53.017Z,73.4
2023-05-12T10:28:52.928Z,73.7
2023-05-12T10:30:52.993Z,72.8
2023-05-12T10:32:53.231Z,72.5
2023-05-12T10:34:52.938Z,74.2
2023-05-12T10:36:54.235Z,74.1
2023-05-12T10:38:52.980Z,74.2
2023-05-12T10:40:52.950Z,73.5
2023-05-12T10:42:52.981Z,73.2
2023-05-12T10:44:53.064Z,72.5
2023-05-12T10:46:53.039Z,73.4
2023-05-12T10:48:52.895Z,73.9
2023-05-12T10:50:52.958Z,74.2
2023-05-12T10:52:53.066Z,74.8
2023-05-12T10:54:54.334Z,74.1
2023-05-12T10:56:54.225Z,74.5
2023-05-12T10:58:54.521Z,75.9
2023-05-12T11:01:01.034Z,74.6
2023-05-12T11:02:54.008Z,75
2023-05-12T11:04:53.100Z,73.9
2023-05-12T11:06:53.216Z,74.3
2023-05-12T11:08:53.207Z,75.4
2023-05-12T11:10:53.711Z,75.4
2023-05-12T11:12:55.408Z,74.5
2023-05-12T11:14:53.088Z,74.2
2023-05-12T11:16:52.951Z,74.6
2023-05-12T11:18:52.861Z,74
2023-05-12T11:20:54.152Z,74.5
2023-05-12T11:22:53.021Z,74.3
2023-05-12T11:24:53.200Z,74.8
2023-05-12T11:26:52.835Z,74.6
2023-05-12T11:28:54.211Z,75.4
2023-05-12T11:30:55.368Z,75.2
2023-05-12T11:32:52.872Z,74.6
2023-05-12T11:34:52.958Z,74.2
2023-05-12T11:36:53.001Z,74.4
2023-05-12T11:38:54.079Z,73.9
2023-05-12T11:40:52.884Z,74.5
2023-05-12T11:42:54.391Z,74.3
2023-05-12T11:44:52.881Z,74.2
2023-05-12T11:46:53.803Z,74.4
2023-05-12T11:48:52.859Z,74.6
2023-05-12T11:50:52.988Z,73.8
2023-05-12T11:52:52.885Z,74.2
2023-05-12T11:54:52.943Z,73.3
2023-05-12T11:56:52.808Z,74
2023-05-12T11:58:52.992Z,73.9
2023-05-12T12:00:52.887Z,74
2023-05-12T12:02:57.282Z,73.9
2023-05-12T12:04:52.880Z,73.2
2023-05-12T12:06:52.915Z,73.8
2023-05-12T12:08:52.897Z,73.2
2023-05-12T12:10:52.871Z,73
2023-05-12T12:12:52.758Z,72.2
2023-05-12T12:14:52.885Z,71.8
2023-05-12T12:16:52.882Z,72
2023-05-12T12:18:53.132Z,71
2023-05-12T12:20:52.814Z,70.3
2023-05-12T12:22:52.910Z,69.4
2023-05-12T12:24:52.821Z,69.1
2023-05-12T12:26:54.214Z,68.7
2023-05-12T12:28:52.873Z,67.7
2023-05-12T12:30:52.914Z,67.8
2023-05-12T12:32:52.916Z,66.8
2023-05-12T12:34:52.899Z,66.6
2023-05-12T12:36:52.779Z,66.2
2023-05-12T12:38:52.785Z,65.6
2023-05-12T12:40:52.750Z,65.3
2023-05-12T12:42:52.826Z,64.1
2023-05-12T12:44:52.900Z,64.1
2023-05-12T12:46:52.829Z,62.6
2023-05-12T12:48:53.742Z,61.9
2023-05-12T12:50:52.745Z,60.5
2023-05-12T12:52:52.802Z,60.2
2023-05-12T12:54:52.805Z,59
2023-05-12T12:56:52.780Z,59
2023-05-12T12:58:52.928Z,58.6
2023-05-12T13:00:52.887Z,59
2023-05-12T13:02:53.003Z,57.2
2023-05-12T13:04:52.743Z,57.2
2023-05-12T13:06:57.420Z,56.7
2023-05-12T13:08:52.968Z,55.6
2023-05-12T13:10:54.062Z,55.6
2023-05-12T13:12:52.812Z,55.7
2023-05-12T13:14:59.643Z,55.3
2023-05-12T13:16:52.853Z,55.9
2023-05-12T13:18:52.854Z,56.9
2023-05-12T13:20:52.759Z,56.9
2023-05-12T13:22:52.827Z,57
2023-05-12T13:24:52.895Z,57
2023-05-12T13:26:52.883Z,57.3
2023-05-12T13:28:52.824Z,56.9
2023-05-12T13:30:52.947Z,57.2
2023-05-12T13:32:57.336Z,57.1
2023-05-12T13:34:52.939Z,57.2
2023-05-12T13:36:52.697Z,56.8
2023-05-12T13:38:53.857Z,57.7
2023-05-12T13:40:52.790Z,58.3
2023-05-12T13:42:52.708Z,58.1
2023-05-12T13:44:52.904Z,57.9
2023-05-12T13:46:52.734Z,57.9
2023-05-12T13:48:54.063Z,57.4
2023-05-12T13:50:52.750Z,57.4
2023-05-12T13:52:52.760Z,57.9
2023-05-12T13:54:54.209Z,57.9
2023-05-12T13:56:52.786Z,57
2023-05-12T13:58:53.023Z,57.6
2023-05-12T14:00:52.733Z,57.6
2023-05-12T14:02:52.990Z,58
2023-05-12T14:04:52.846Z,58.2
2023-05-12T14:06:52.672Z,58.2
2023-05-12T14:08:52.859Z,58.5
2023-05-12T14:10:52.706Z,58.9
2023-05-12T14:12:52.793Z,58.8
2023-05-12T14:14:53.095Z,58.8
2023-05-12T14:16:53.936Z,57.3
2023-05-12T14:18:52.718Z,57.6
2023-05-12T14:20:52.855Z,57.3
2023-05-12T14:22:52.690Z,57.7
2023-05-12T14:24:52.816Z,58.3
2023-05-12T14:26:52.826Z,58
2023-05-12T14:28:52.844Z,58
2023-05-12T14:30:52.819Z,57.8
2023-05-12T14:32:52.969Z,56.4
2023-05-12T14:34:52.633Z,57.9
2023-05-12T14:36:52.617Z,56.5
2023-05-12T14:38:52.850Z,57
2023-05-12T14:40:52.714Z,57.7
2023-05-12T14:42:52.713Z,57.6
2023-05-12T14:44:52.958Z,57.6
2023-05-12T14:46:52.662Z,57.2
2023-05-12T14:48:54.098Z,57.8
2023-05-12T14:50:52.686Z,57.3
2023-05-12T14:52:52.705Z,56.5
2023-05-12T14:54:52.660Z,56.6
2023-05-12T14:56:52.812Z,57.1
2023-05-12T14:58:54.002Z,56.9
2023-05-12T15:00:52.644Z,56.7
2023-05-12T15:02:52.725Z,57.2
2023-05-12T15:04:52.616Z,57.3
2023-05-12T15:06:53.833Z,57.1
2023-05-12T15:08:55.200Z,57.2
2023-05-12T15:10:52.645Z,56.5
2023-05-12T15:12:52.860Z,56.2
2023-05-12T15:14:54.011Z,56.9
2023-05-12T15:16:52.667Z,55.8
2023-05-12T15:18:52.823Z,56.6
2023-05-12T15:20:52.691Z,57.1
2023-05-12T15:22:52.618Z,57.3
2023-05-12T15:24:52.726Z,55.1
2023-05-12T15:26:52.667Z,55.3
2023-05-12T15:28:52.767Z,55.3
2023-05-12T15:30:52.726Z,55.8
2023-05-12T15:32:52.729Z,56
2023-05-12T15:34:52.745Z,56.6
2023-05-12T15:36:52.588Z,56.8
2023-05-12T15:38:52.697Z,57.2
2023-05-12T15:40:52.669Z,57.3
2023-05-12T15:42:52.804Z,55.8
2023-05-12T15:44:52.625Z,55.8
2023-05-12T15:46:55.312Z,55.3
2023-05-12T15:48:53.625Z,54.9
2023-05-12T15:50:53.734Z,54.1
2023-05-12T15:52:53.075Z,55.1
2023-05-12T15:54:52.679Z,55.7
2023-05-12T15:56:53.668Z,55.6
2023-05-12T15:58:52.571Z,55.7
2023-05-12T16:00:52.797Z,55.1
2023-05-12T16:02:52.842Z,55
2023-05-12T16:04:52.634Z,54.8
2023-05-12T16:06:52.630Z,54.2
2023-05-12T16:08:52.771Z,54.1
2023-05-12T16:10:53.885Z,55.6
2023-05-12T16:12:52.932Z,54
2023-05-12T16:14:52.742Z,54.2
2023-05-12T16:16:52.696Z,52.9
2023-05-12T16:18:52.626Z,53.6
2023-05-12T16:20:52.759Z,52.9
2023-05-12T16:22:52.683Z,53.9
2023-05-12T16:24:55.353Z,53.7
2023-05-12T16:26:52.515Z,53.2
2023-05-12T16:28:52.583Z,53.2
2023-05-12T16:30:52.770Z,52.4
2023-05-12T16:32:52.578Z,53.2
2023-05-12T16:34:52.569Z,52.2
2023-05-12T16:36:55.186Z,52.6
2023-05-12T16:38:52.537Z,52.4
2023-05-12T16:40:52.772Z,52.2
2023-05-12T16:42:57.092Z,51.4
2023-05-12T16:44:52.756Z,52
2023-05-12T16:46:52.628Z,51.7
2023-05-12T16:48:52.700Z,52.8
2023-05-12T16:51:01.387Z,53.1
2023-05-12T16:52:52.551Z,52.6
2023-05-12T16:54:52.636Z,52.1
2023-05-12T16:56:53.273Z,50.7
2023-05-12T16:58:52.522Z,51.3
2023-05-12T17:00:52.902Z,52.7
2023-05-12T17:02:52.613Z,52.1
2023-05-12T17:04:52.561Z,54
2023-05-12T17:06:52.508Z,51.9
2023-05-12T17:08:52.614Z,52.3
2023-05-12T17:10:52.582Z,51.9
2023-05-12T17:12:52.480Z,52.5
2023-05-12T17:15:06.663Z,50
2023-05-12T17:16:52.688Z,50
2023-05-12T17:20:53.890Z,50.4
2023-05-12T17:22:52.764Z,50.9
2023-05-12T17:24:52.480Z,50.7
2023-05-12T17:26:53.887Z,50.9
2023-05-12T17:28:52.591Z,50.8
2023-05-12T17:30:53.629Z,50.8
2023-05-12T17:32:52.701Z,51.4
2023-05-12T17:34:52.434Z,50.8
2023-05-12T17:36:52.551Z,51.2
2023-05-12T17:38:52.603Z,50.2
2023-05-12T17:40:52.564Z,50
2023-05-12T17:42:52.514Z,52.4
2023-05-12T17:44:52.673Z,51.6
2023-05-12T17:46:52.519Z,51.1
2023-05-12T17:48:53.736Z,50.2
2023-05-12T17:50:52.503Z,51.8
2023-05-12T17:52:52.525Z,49.2
2023-05-12T17:54:53.519Z,48.6
2023-05-12T17:56:53.892Z,50.8
2023-05-12T17:58:54.946Z,49.7
2023-05-12T18:00:52.405Z,50.7
2023-05-12T18:02:53.765Z,49.8
2023-05-12T18:04:52.449Z,50.4
2023-05-12T18:06:53.560Z,49.8
2023-05-12T18:08:52.493Z,49.3
2023-05-12T18:10:52.640Z,50.2
2023-05-12T18:12:55.572Z,50.3
2023-05-12T18:14:52.435Z,50
2023-05-12T18:16:52.442Z,50.2
2023-05-12T18:18:52.522Z,49.6
2023-05-12T18:20:52.505Z,49.9
2023-05-12T18:22:53.988Z,49.1
2023-05-12T18:24:52.494Z,48.5
2023-05-12T18:26:52.758Z,48.1
2023-05-12T18:28:52.725Z,48.1
2023-05-12T18:30:53.431Z,49
2023-05-12T18:32:52.640Z,48.8
2023-05-12T18:34:55.176Z,48.5
2023-05-12T18:36:52.609Z,48.6
2023-05-12T18:38:52.423Z,48.6
2023-05-12T18:40:52.544Z,47.6
2023-05-12T18:42:53.523Z,47.9
2023-05-12T18:44:52.458Z,47.9
2023-05-12T18:46:52.506Z,48.7
2023-05-12T18:48:52.400Z,48.1
2023-05-12T18:50:52.389Z,48.1
2023-05-12T18:52:52.420Z,47.8
2023-05-12T18:54:52.399Z,47.6
2023-05-12T18:56:52.474Z,46.4
2023-05-12T18:58:52.422Z,46.7
2023-05-12T19:00:52.371Z,48
2023-05-12T19:02:52.710Z,47.6
2023-05-12T19:04:52.714Z,47.5
2023-05-12T19:06:55.040Z,47.9
2023-05-12T21:45:30.937Z,44.7
2023-05-12T21:46:59.995Z,44.9
2023-05-12T21:48:59.868Z,44.4
2023-05-12T21:50:59.906Z,43.9
2023-05-12T21:52:59.907Z,44.6
2023-05-12T21:54:59.927Z,45.2
2023-05-12T21:56:59.959Z,45.6
2023-05-12T21:58:59.973Z,46.5
2023-05-12T22:00:59.942Z,46.4
2023-05-12T22:03:00.184Z,46.2
2023-05-12T22:05:36.020Z,45.9
2023-05-12T22:06:50.077Z,45.9
2023-05-12T22:08:15.370Z,45.6
